Time;durP1;ratioP1;P1;durP2;ratioP2;P2;SDS_P1;SDS_P2;PMS_P1;PMS_P2;Temp;Humidity;BMP_temperature;BMP_pressure;BME280_temperature;BME280_humidity;BME280_pressure;Samples;Min_cycle;Max_cycle;Signal;HPM_P1;HPM_P2
2023/09/02 00:01:40;;;;;;;29.38;27.83;;;;;;;;;;5041544;28;20040;-73
2023/09/02 00:04:05;;;;;;;26.92;25.50;;;;;;;;;;5041572;28;20061;-73
2023/09/02 00:06:30;;;;;;;30.98;29.38;;;;;;;;;;5043137;28;20029;-72
2023/09/02 00:08:56;;;;;;;28.92;27.38;;;;;;;;;;5038854;28;20526;-74
2023/09/02 00:11:21;;;;;;;27.88;26.08;;;;;;;;;;5042270;28;20434;-73
2023/09/02 00:13:47;;;;;;;27.23;25.80;;;;;;;;;;5038578;28;20112;-74
2023/09/02 00:16:13;;;;;;;29.73;28.15;;;;;;;;;;5022843;28;20090;-73
2023/09/02 00:18:39;;;;;;;29.38;27.85;;;;;;;;;;5043740;28;20032;-72
2023/09/02 00:21:04;;;;;;;35.00;33.20;;;;;;;;;;5039569;28;20522;-72
2023/09/02 00:23:31;;;;;;;42.97;40.80;;;;;;;;;;5042578;28;20052;-72
2023/09/02 00:25:57;;;;;;;36.42;34.55;;;;;;;;;;5041196;28;20032;-72
2023/09/02 00:28:22;;;;;;;33.13;31.42;;;;;;;;;;5039619;28;20037;-72
2023/09/02 00:30:48;;;;;;;42.08;39.92;;;;;;;;;;5043052;28;20124;-72
2023/09/02 00:33:13;;;;;;;41.47;39.35;;;;;;;;;;5053146;28;20028;-71
2023/09/02 00:35:38;;;;;;;40.22;38.17;;;;;;;;;;5042430;28;20033;-72
2023/09/02 00:38:04;;;;;;;39.05;37.05;;;;;;;;;;5039626;28;20040;-71
2023/09/02 00:40:30;;;;;;;38.13;36.17;;;;;;;;;;5040417;28;20046;-72
2023/09/02 00:42:57;;;;;;;39.60;37.58;;;;;;;;;;5039366;28;20040;-71
2023/09/02 00:45:23;;;;;;;34.80;33.00;;;;;;;;;;5040030;28;20068;-71
2023/09/02 00:47:49;;;;;;;32.60;30.90;;;;;;;;;;5039241;28;20710;-72
2023/09/02 00:50:15;;;;;;;36.10;34.22;;;;;;;;;;5039392;28;20029;-72
2023/09/02 00:52:40;;;;;;;37.67;35.72;;;;;;;;;;5043038;28;20056;-72
2023/09/02 00:55:06;;;;;;;41.72;39.53;;;;;;;;;;5040585;28;20114;-72
2023/09/02 00:57:32;;;;;;;38.58;36.63;;;;;;;;;;5041222;28;20138;-72
2023/09/02 00:59:58;;;;;;;36.60;34.65;;;;;;;;;;5023565;28;20041;-72
2023/09/02 01:02:24;;;;;;;35.03;33.22;;;;;;;;;;5043875;28;20028;-72
2023/09/02 01:04:50;;;;;;;39.97;37.90;;;;;;;;;;5039769;28;20044;-71
2023/09/02 01:07:17;;;;;;;38.88;36.88;;;;;;;;;;5042480;28;20108;-72
2023/09/02 01:09:43;;;;;;;35.33;33.50;;;;;;;;;;5038736;28;20052;-73
2023/09/02 01:12:08;;;;;;;32.28;30.63;;;;;;;;;;5038639;28;20045;-72
2023/09/02 01:14:34;;;;;;;32.70;30.90;;;;;;;;;;5036103;28;20094;-72
2023/09/02 01:16:59;;;;;;;39.08;37.10;;;;;;;;;;5038609;28;20122;-72
2023/09/02 01:19:24;;;;;;;47.95;45.53;;;;;;;;;;5041686;28;20032;-74
2023/09/02 01:22:28;;;;;;;61.90;58.78;;;;;;;;;;5023696;28;20021;-73
2023/09/02 01:25:17;;;;;;;82.90;78.78;;;;;;;;;;5040609;28;20629;-74
2023/09/02 01:28:26;;;;;;;95.25;90.53;;;;;;;;;;5041592;28;20115;-73
2023/09/02 01:30:54;;;;;;;149.55;142.18;;;;;;;;;;4946040;28;20032;-73
2023/09/02 01:33:21;;;;;;;158.82;151.00;;;;;;;;;;4958346;28;20182;-73
2023/09/02 01:35:50;;;;;;;155.82;148.15;;;;;;;;;;4993326;28;20040;-72
2023/09/02 01:38:16;;;;;;;148.02;140.73;;;;;;;;;;5010516;28;20134;-72
2023/09/02 01:40:43;;;;;;;142.38;135.32;;;;;;;;;;5038668;28;20404;-73
2023/09/02 01:43:10;;;;;;;141.48;134.43;;;;;;;;;;5038987;28;20041;-72
2023/09/02 01:45:36;;;;;;;142.85;135.80;;;;;;;;;;5006022;28;20044;-72
2023/09/02 01:48:03;;;;;;;138.35;131.50;;;;;;;;;;5038606;28;20034;-73
2023/09/02 01:50:31;;;;;;;132.65;126.05;;;;;;;;;;5019727;28;20033;-72
2023/09/02 01:52:58;;;;;;;130.35;123.85;;;;;;;;;;5039388;28;20040;-72
2023/09/02 01:55:24;;;;;;;126.30;120.05;;;;;;;;;;5038460;28;20711;-73
2023/09/02 01:57:49;;;;;;;109.32;103.93;;;;;;;;;;5025610;28;20036;-74
2023/09/02 02:00:15;;;;;;;102.13;97.05;;;;;;;;;;5038646;28;20044;-72
2023/09/02 02:02:42;;;;;;;108.93;103.53;;;;;;;;;;5039127;28;20143;-73
2023/09/02 02:05:11;;;;;;;96.95;92.18;;;;;;;;;;5038020;28;20048;-72
2023/09/02 02:07:41;;;;;;;102.55;97.47;;;;;;;;;;5036810;28;20044;-73
2023/09/02 02:10:11;;;;;;;100.60;95.63;;;;;;;;;;5039567;28;20044;-72
2023/09/02 02:12:40;;;;;;;106.78;101.30;;;;;;;;;;5038144;28;20502;-72
2023/09/02 02:15:10;;;;;;;109.63;104.18;;;;;;;;;;5039260;28;20624;-72
2023/09/02 02:17:39;;;;;;;122.93;116.83;;;;;;;;;;5040883;28;20025;-72
2023/09/02 02:20:06;;;;;;;123.88;117.78;;;;;;;;;;5023210;28;20036;-73
2023/09/02 02:22:31;;;;;;;115.47;109.75;;;;;;;;;;5038848;28;20135;-72
2023/09/02 02:24:56;;;;;;;125.07;118.90;;;;;;;;;;5025629;28;20475;-75
2023/09/02 02:27:22;;;;;;;120.30;114.40;;;;;;;;;;5039071;28;20037;-73
2023/09/02 02:29:48;;;;;;;118.05;112.20;;;;;;;;;;5037393;28;20033;-73
2023/09/02 02:32:13;;;;;;;119.72;113.80;;;;;;;;;;5038127;28;20063;-72
2023/09/02 02:34:38;;;;;;;121.72;115.65;;;;;;;;;;5036662;28;20045;-73
2023/09/02 02:37:04;;;;;;;130.50;124.05;;;;;;;;;;5025142;28;20068;-73
2023/09/02 02:39:29;;;;;;;138.23;131.38;;;;;;;;;;5036294;28;20116;-73
2023/09/02 02:41:55;;;;;;;132.77;125.95;;;;;;;;;;5039022;28;20442;-73
2023/09/02 02:44:20;;;;;;;137.10;130.27;;;;;;;;;;5022789;28;20483;-73
2023/09/02 02:46:47;;;;;;;152.18;144.40;;;;;;;;;;5036020;28;20454;-73
2023/09/02 02:49:12;;;;;;;153.02;145.40;;;;;;;;;;5036781;28;20064;-73
2023/09/02 02:51:38;;;;;;;156.52;148.70;;;;;;;;;;5037790;28;20123;-73
2023/09/02 02:54:03;;;;;;;158.25;150.32;;;;;;;;;;5035735;28;20499;-73
2023/09/02 02:56:28;;;;;;;144.98;137.73;;;;;;;;;;5035499;28;20044;-73
2023/09/02 02:58:55;;;;;;;149.23;141.77;;;;;;;;;;5038856;28;20602;-73
2023/09/02 03:01:20;;;;;;;142.48;135.32;;;;;;;;;;5040468;28;20029;-73
2023/09/02 03:03:46;;;;;;;145.48;138.23;;;;;;;;;;5035691;28;20032;-72
2023/09/02 03:06:17;;;;;;;142.50;135.35;;;;;;;;;;5034665;28;20468;-73
2023/09/02 03:08:42;;;;;;;;;;;;;;;;;;5056526;28;20028;-72
2023/09/02 03:11:08;;;;;;;114.82;109.10;;;;;;;;;;5037309;28;19921;-72
2023/09/02 03:13:33;;;;;;;131.90;125.32;;;;;;;;;;5037570;28;20456;-72
2023/09/02 03:16:02;;;;;;;127.25;120.85;;;;;;;;;;5038873;28;20036;-73
2023/09/02 03:18:28;;;;;;;126.25;119.90;;;;;;;;;;5023955;28;20052;-73
2023/09/02 03:20:55;;;;;;;129.43;122.97;;;;;;;;;;5036432;28;20149;-72
2023/09/02 03:23:21;;;;;;;122.60;116.30;;;;;;;;;;5039847;28;20115;-74
2023/09/02 03:25:47;;;;;;;122.30;116.20;;;;;;;;;;5042201;28;20094;-73
2023/09/02 03:28:13;;;;;;;139.98;132.65;;;;;;;;;;5039138;28;20040;-74
2023/09/02 03:30:39;;;;;;;137.93;131.02;;;;;;;;;;5040271;28;20044;-72
2023/09/02 03:33:04;;;;;;;141.90;134.75;;;;;;;;;;5041765;28;20030;-73
2023/09/02 03:35:35;;;;;;;151.50;143.90;;;;;;;;;;5040034;28;20507;-74
2023/09/02 03:38:00;;;;;;;132.27;125.57;;;;;;;;;;5037294;28;20064;-73
2023/09/02 03:40:26;;;;;;;134.52;127.82;;;;;;;;;;5044137;28;20045;-74
2023/09/02 03:42:51;;;;;;;130.82;124.25;;;;;;;;;;5040757;28;20115;-74
2023/09/02 03:45:16;;;;;;;128.82;122.40;;;;;;;;;;5041619;28;20037;-75
2023/09/02 03:47:42;;;;;;;122.60;116.45;;;;;;;;;;5040273;28;20159;-74
2023/09/02 03:50:07;;;;;;;119.43;113.45;;;;;;;;;;5039556;28;20484;-74
2023/09/02 03:52:33;;;;;;;118.53;112.63;;;;;;;;;;5025930;28;20485;-73
2023/09/02 03:54:58;;;;;;;114.95;109.22;;;;;;;;;;5041218;28;20701;-73
2023/09/02 03:57:24;;;;;;;118.40;112.50;;;;;;;;;;5039166;28;20880;-74
2023/09/02 03:59:49;;;;;;;125.32;119.07;;;;;;;;;;5021420;28;20037;-72
2023/09/02 04:02:15;;;;;;;115.90;110.15;;;;;;;;;;5038692;28;20108;-71
2023/09/02 04:04:40;;;;;;;102.28;97.18;;;;;;;;;;5037300;28;20049;-73
2023/09/02 04:07:06;;;;;;;106.63;101.30;;;;;;;;;;5039823;28;20033;-72
2023/09/02 04:09:33;;;;;;;109.10;103.63;;;;;;;;;;5055374;28;20028;-73
2023/09/02 04:11:58;;;;;;;98.50;93.55;;;;;;;;;;5039242;28;20539;-72
2023/09/02 04:14:24;;;;;;;102.82;97.65;;;;;;;;;;5021786;28;20052;-73
2023/09/02 04:16:51;;;;;;;102.90;97.75;;;;;;;;;;5041617;28;20383;-73
2023/09/02 04:19:17;;;;;;;102.57;97.38;;;;;;;;;;5022616;28;20037;-72
2023/09/02 04:21:43;;;;;;;101.43;96.18;;;;;;;;;;5042510;28;20025;-72
2023/09/02 04:24:09;;;;;;;101.88;96.78;;;;;;;;;;5044483;28;20179;-73
2023/09/02 04:26:34;;;;;;;101.22;96.18;;;;;;;;;;5038786;28;20482;-73
2023/09/02 04:29:00;;;;;;;109.13;103.63;;;;;;;;;;5037848;28;20060;-71
2023/09/02 04:31:26;;;;;;;113.00;107.32;;;;;;;;;;5041210;28;20038;-71
2023/09/02 04:33:51;;;;;;;104.78;99.50;;;;;;;;;;5036775;28;20056;-73
2023/09/02 04:36:17;;;;;;;105.82;100.50;;;;;;;;;;5039700;28;20025;-73
2023/09/02 04:38:42;;;;;;;105.88;100.18;;;;;;;;;;5038446;28;20063;-74
2023/09/02 04:41:08;;;;;;;109.07;103.63;;;;;;;;;;5041246;28;20489;-72
2023/09/02 04:43:37;;;;;;;111.68;106.10;;;;;;;;;;5039666;28;20045;-73
2023/09/02 04:46:04;;;;;;;107.03;101.65;;;;;;;;;;5039441;28;20060;-73
2023/09/02 04:48:29;;;;;;;103.82;98.57;;;;;;;;;;5035997;28;20033;-72
2023/09/02 04:50:55;;;;;;;105.03;99.78;;;;;;;;;;5036606;28;20037;-72
2023/09/02 04:53:22;;;;;;;94.68;89.97;;;;;;;;;;5036676;28;20063;-74
2023/09/02 04:55:48;;;;;;;79.90;75.93;;;;;;;;;;5025986;28;20519;-72
2023/09/02 04:58:14;;;;;;;77.35;73.45;;;;;;;;;;5038294;28;20147;-72
2023/09/02 05:00:40;;;;;;;75.72;71.82;;;;;;;;;;5038869;28;20171;-73
2023/09/02 05:03:06;;;;;;;75.47;71.68;;;;;;;;;;5039148;28;20127;-73
2023/09/02 05:05:31;;;;;;;69.18;65.68;;;;;;;;;;5039372;28;20033;-71
2023/09/02 05:07:58;;;;;;;68.85;65.35;;;;;;;;;;5036512;28;20088;-72
2023/09/02 05:10:23;;;;;;;69.22;65.68;;;;;;;;;;5021757;28;20072;-72
2023/09/02 05:12:49;;;;;;;76.57;72.70;;;;;;;;;;5039669;28;20452;-71
2023/09/02 05:15:14;;;;;;;79.30;75.25;;;;;;;;;;5037388;28;20414;-72
2023/09/02 05:17:40;;;;;;;75.25;71.40;;;;;;;;;;5039846;28;20041;-72
2023/09/02 05:20:06;;;;;;;77.72;73.78;;;;;;;;;;5037685;28;20732;-73
2023/09/02 05:22:34;;;;;;;94.78;90.03;;;;;;;;;;5021849;28;20029;-74
2023/09/02 05:24:59;;;;;;;93.35;88.65;;;;;;;;;;5035178;28;20029;-72
2023/09/02 05:27:25;;;;;;;87.95;83.55;;;;;;;;;;5038686;28;20482;-71
2023/09/02 05:29:51;;;;;;;93.70;89.00;;;;;;;;;;5036694;28;20044;-71
2023/09/02 05:32:17;;;;;;;81.38;77.22;;;;;;;;;;5025579;28;20029;-72
2023/09/02 05:34:43;;;;;;;85.93;81.47;;;;;;;;;;5041078;28;20042;-71
2023/09/02 05:37:08;;;;;;;83.28;79.13;;;;;;;;;;5035189;28;20143;-70
2023/09/02 05:39:34;;;;;;;72.43;68.80;;;;;;;;;;5020489;28;20068;-72
2023/09/02 05:41:59;;;;;;;67.50;63.97;;;;;;;;;;5037947;28;20542;-71
2023/09/02 05:44:25;;;;;;;74.38;70.10;;;;;;;;;;5038590;28;20463;-71
2023/09/02 05:46:50;;;;;;;71.07;67.40;;;;;;;;;;5037018;28;20162;-71
2023/09/02 05:49:16;;;;;;;72.30;68.60;;;;;;;;;;5023239;28;20459;-71
2023/09/02 05:51:42;;;;;;;81.93;77.85;;;;;;;;;;5041879;28;20048;-72
2023/09/02 05:54:09;;;;;;;79.60;75.65;;;;;;;;;;5041193;28;20437;-71
2023/09/02 05:56:35;;;;;;;83.80;79.65;;;;;;;;;;5035874;28;20077;-70
2023/09/02 05:59:01;;;;;;;81.28;77.25;;;;;;;;;;5037240;28;20157;-72
2023/09/02 06:01:27;;;;;;;74.43;70.55;;;;;;;;;;5040300;28;20029;-72
2023/09/02 06:03:52;;;;;;;79.93;75.88;;;;;;;;;;5037356;28;20053;-73
2023/09/02 06:06:17;;;;;;;75.95;72.18;;;;;;;;;;5036353;28;20155;-72
2023/09/02 06:08:43;;;;;;;77.55;73.60;;;;;;;;;;5037617;28;20985;-73
2023/09/02 06:11:08;;;;;;;74.28;70.60;;;;;;;;;;5038435;28;20060;-72
2023/09/02 06:13:34;;;;;;;74.03;70.32;;;;;;;;;;5036074;28;20083;-71
2023/09/02 06:16:01;;;;;;;75.65;71.88;;;;;;;;;;5036084;28;20037;-71
2023/09/02 06:18:27;;;;;;;79.53;75.43;;;;;;;;;;5037275;28;20056;-68
2023/09/02 06:20:53;;;;;;;81.13;77.05;;;;;;;;;;5040431;28;20037;-72
2023/09/02 06:23:19;;;;;;;83.72;79.53;;;;;;;;;;5024304;28;20098;-73
2023/09/02 06:25:45;;;;;;;80.00;75.95;;;;;;;;;;5037254;28;20044;-72
2023/09/02 06:28:10;;;;;;;80.63;76.57;;;;;;;;;;5037827;28;20037;-74
2023/09/02 06:30:36;;;;;;;89.65;85.18;;;;;;;;;;5038352;28;20857;-72
2023/09/02 06:33:02;;;;;;;91.00;86.50;;;;;;;;;;5036789;28;20038;-75
2023/09/02 06:35:31;;;;;;;72.57;68.75;;;;;;;;;;5039090;28;20028;-73
2023/09/02 06:37:56;;;;;;;73.07;69.38;;;;;;;;;;5039726;28;20040;-71
2023/09/02 06:40:22;;;;;;;78.20;74.25;;;;;;;;;;5022370;28;20045;-73
2023/09/02 06:42:47;;;;;;;79.78;75.80;;;;;;;;;;5032027;28;20033;-73
2023/09/02 06:45:12;;;;;;;86.38;82.05;;;;;;;;;;5041160;28;20042;-71
2023/09/02 06:47:38;;;;;;;72.15;68.57;;;;;;;;;;5038392;28;20050;-69
2023/09/02 06:50:04;;;;;;;64.57;61.33;;;;;;;;;;5036319;28;20112;-73
2023/09/02 06:52:30;;;;;;;75.85;72.05;;;;;;;;;;5037405;28;20474;-74
2023/09/02 06:54:55;;;;;;;78.93;75.00;;;;;;;;;;5023911;28;20037;-74
2023/09/02 06:57:20;;;;;;;70.95;67.38;;;;;;;;;;5034501;28;20032;-70
2023/09/02 06:59:46;;;;;;;65.95;62.60;;;;;;;;;;5023090;28;20638;-70
2023/09/02 07:02:11;;;;;;;59.67;56.65;;;;;;;;;;5037998;28;20172;-72
2023/09/02 07:04:36;;;;;;;66.32;62.97;;;;;;;;;;5034783;28;20044;-74
2023/09/02 07:07:02;;;;;;;55.63;52.83;;;;;;;;;;5035986;28;20033;-74
2023/09/02 07:09:27;;;;;;;64.10;60.83;;;;;;;;;;5036842;28;20033;-71
2023/09/02 07:11:53;;;;;;;62.30;59.15;;;;;;;;;;5035911;28;20048;-71
2023/09/02 07:14:18;;;;;;;60.42;57.38;;;;;;;;;;5039933;28;20068;-74
2023/09/02 07:16:44;;;;;;;65.68;62.38;;;;;;;;;;5036533;28;20036;-76
2023/09/02 07:19:09;;;;;;;57.53;54.65;;;;;;;;;;5032880;28;20045;-76
2023/09/02 07:21:34;;;;;;;50.60;47.75;;;;;;;;;;5034941;28;20037;-75
2023/09/02 07:24:00;;;;;;;48.53;46.00;;;;;;;;;;5010689;28;20538;-74
2023/09/02 07:26:27;;;;;;;56.97;54.08;;;;;;;;;;5037992;28;20041;-75
2023/09/02 07:28:53;;;;;;;44.03;41.72;;;;;;;;;;5036306;28;20125;-75
2023/09/02 07:31:18;;;;;;;52.95;50.22;;;;;;;;;;5037113;28;20044;-74
2023/09/02 07:33:44;;;;;;;49.08;46.50;;;;;;;;;;5022278;28;20037;-74
2023/09/02 07:36:11;;;;;;;46.45;44.08;;;;;;;;;;5036472;28;20029;-75
2023/09/02 07:38:37;;;;;;;50.78;48.20;;;;;;;;;;5038144;28;20033;-72
2023/09/02 07:41:03;;;;;;;54.88;52.08;;;;;;;;;;5033810;28;20021;-73
2023/09/02 07:43:29;;;;;;;58.60;55.63;;;;;;;;;;5034038;28;20041;-74
2023/09/02 07:45:55;;;;;;;66.07;62.78;;;;;;;;;;5039638;28;20373;-72
2023/09/02 07:48:20;;;;;;;72.13;68.53;;;;;;;;;;5038177;28;20030;-74
2023/09/02 07:50:46;;;;;;;68.32;64.90;;;;;;;;;;5036171;28;20034;-73
2023/09/02 07:53:12;;;;;;;86.55;82.22;;;;;;;;;;5036000;28;20040;-74
2023/09/02 07:55:38;;;;;;;76.47;72.70;;;;;;;;;;5022501;28;20065;-74
2023/09/02 07:58:03;;;;;;;87.28;82.95;;;;;;;;;;5036575;28;20620;-73
2023/09/02 08:00:29;;;;;;;107.22;101.88;;;;;;;;;;5039540;28;20033;-73
2023/09/02 08:02:55;;;;;;;103.80;98.68;;;;;;;;;;5024080;28;20396;-74
2023/09/02 08:05:20;;;;;;;108.95;103.50;;;;;;;;;;5036036;28;20065;-72
2023/09/02 08:07:46;;;;;;;119.47;113.53;;;;;;;;;;5038657;28;20616;-74
2023/09/02 08:10:11;;;;;;;137.80;130.88;;;;;;;;;;5041966;28;20514;-74
2023/09/02 08:12:39;;;;;;;145.23;138.00;;;;;;;;;;5039924;28;20540;-75
2023/09/02 08:15:05;;;;;;;149.93;142.55;;;;;;;;;;5041833;28;20051;-72
2023/09/02 08:17:35;;;;;;;178.55;169.77;;;;;;;;;;5037662;28;20029;-75
2023/09/02 08:20:00;;;;;;;187.93;178.73;;;;;;;;;;5039777;28;20108;-71
2023/09/02 08:22:27;;;;;;;189.60;180.35;;;;;;;;;;5043859;28;20108;-72
2023/09/02 08:24:52;;;;;;;157.32;149.55;;;;;;;;;;5039789;28;20029;-73
2023/09/02 08:27:17;;;;;;;176.27;167.65;;;;;;;;;;5043071;28;20033;-71
2023/09/02 08:29:43;;;;;;;162.32;154.32;;;;;;;;;;5040090;28;21021;-74
2023/09/02 08:32:08;;;;;;;163.60;155.57;;;;;;;;;;5040822;28;20581;-73
2023/09/02 08:34:34;;;;;;;149.68;142.25;;;;;;;;;;5021184;28;20032;-76
2023/09/02 08:36:59;;;;;;;154.68;147.05;;;;;;;;;;5040715;28;20029;-75
2023/09/02 08:39:24;;;;;;;171.23;162.80;;;;;;;;;;5044117;28;20032;-75
2023/09/02 08:41:50;;;;;;;177.88;169.15;;;;;;;;;;5041090;28;20108;-74
2023/09/02 08:44:19;;;;;;;191.07;181.75;;;;;;;;;;5039465;28;20048;-73
2023/09/02 08:46:45;;;;;;;220.18;209.48;;;;;;;;;;5041363;28;20041;-75
2023/09/02 08:49:13;;;;;;;209.20;198.95;;;;;;;;;;5040343;28;20261;-74
2023/09/02 08:51:39;;;;;;;209.13;198.90;;;;;;;;;;5039192;28;20037;-73
2023/09/02 08:54:04;;;;;;;226.68;215.65;;;;;;;;;;5039469;28;20529;-72
2023/09/02 08:56:30;;;;;;;224.30;213.38;;;;;;;;;;5040194;28;20100;-72
2023/09/02 08:58:55;;;;;;;229.27;218.15;;;;;;;;;;5040813;28;20041;-74
2023/09/02 09:01:23;;;;;;;224.90;213.90;;;;;;;;;;5041690;28;20025;-72
2023/09/02 09:03:53;;;;;;;240.05;228.40;;;;;;;;;;5019881;28;20223;-75
2023/09/02 09:06:23;;;;;;;157.95;150.15;;;;;;;;;;5039312;28;20037;-74
2023/09/02 09:08:50;;;;;;;215.98;205.35;;;;;;;;;;5041643;28;20040;-75
2023/09/02 09:11:16;;;;;;;85.97;81.65;;;;;;;;;;5036032;28;20030;-74
2023/09/02 09:13:47;;;;;;;70.43;66.88;;;;;;;;;;5041468;28;20037;-73
2023/09/02 09:16:15;;;;;;;;;;;;;;;;;;5039875;28;20048;-73
2023/09/02 09:18:41;;;;;;;30.23;28.63;;;;;;;;;;5039859;28;20138;-73
2023/09/02 09:21:06;;;;;;;30.83;29.23;;;;;;;;;;5039689;28;20029;-72
2023/09/02 09:23:35;;;;;;;27.35;25.90;;;;;;;;;;5037465;28;20487;-73
2023/09/02 09:26:02;;;;;;;52.38;49.72;;;;;;;;;;5041458;28;20032;-69
2023/09/02 09:28:48;;;;;;;59.55;56.55;;;;;;;;;;5028047;28;20029;-71
2023/09/02 09:31:15;;;;;;;71.20;67.60;;;;;;;;;;5040772;28;20485;-71
2023/09/02 09:33:48;;;;;;;25.13;23.65;;;;;;;;;;5051990;28;20044;-72
2023/09/02 09:36:14;;;;;;;24.13;22.83;;;;;;;;;;5039927;28;20036;-72
2023/09/02 09:38:39;;;;;;;27.08;25.45;;;;;;;;;;5037945;28;20048;-71
2023/09/02 09:41:08;;;;;;;29.00;27.50;;;;;;;;;;5037109;28;20033;-69
2023/09/02 09:43:34;;;;;;;28.00;26.55;;;;;;;;;;5055217;28;20049;-72
2023/09/02 09:46:00;;;;;;;29.73;28.15;;;;;;;;;;5037103;28;20053;-69
2023/09/02 09:48:26;;;;;;;27.70;26.25;;;;;;;;;;5037685;28;20032;-71
2023/09/02 09:50:51;;;;;;;30.98;29.38;;;;;;;;;;5041011;28;20028;-72
2023/09/02 09:53:17;;;;;;;29.75;28.15;;;;;;;;;;5023556;28;20033;-72
2023/09/02 09:55:43;;;;;;;32.03;30.38;;;;;;;;;;5037320;28;20119;-72
2023/09/02 09:58:08;;;;;;;32.45;30.77;;;;;;;;;;5039589;28;20032;-69
2023/09/02 10:00:34;;;;;;;47.10;44.70;;;;;;;;;;5037257;28;20502;-68
2023/09/02 10:03:00;;;;;;;84.60;80.43;;;;;;;;;;5037890;28;20065;-71
2023/09/02 10:05:33;;;;;;;56.65;53.83;;;;;;;;;;5036807;28;20045;-72
2023/09/02 10:08:03;;;;;;;32.28;30.58;;;;;;;;;;5038451;28;20634;-68
2023/09/02 10:10:33;;;;;;;39.70;37.65;;;;;;;;;;5034695;28;20110;-69
2023/09/02 10:12:59;;;;;;;85.65;81.38;;;;;;;;;;5003369;28;20511;-73
2023/09/02 10:15:26;;;;;;;145.68;138.60;;;;;;;;;;5018821;28;20104;-75
2023/09/02 10:17:55;;;;;;;146.95;139.75;;;;;;;;;;5039493;28;20039;-67
2023/09/02 10:20:24;;;;;;;47.22;44.80;;;;;;;;;;5023283;28;20098;-69
2023/09/02 10:22:51;;;;;;;195.68;186.32;;;;;;;;;;5039914;28;20025;-70
2023/09/02 10:25:19;;;;;;;148.55;141.25;;;;;;;;;;5037569;28;20098;-69
2023/09/02 10:27:50;;;;;;;205.90;196.05;;;;;;;;;;5053781;28;20039;-70
2023/09/02 10:30:24;;;;;;;204.38;194.57;;;;;;;;;;5022735;28;20075;-74
2023/09/02 10:32:51;;;;;;;177.32;168.75;;;;;;;;;;5039328;28;20071;-68
2023/09/02 10:35:21;;;;;;;142.40;135.52;;;;;;;;;;5038568;28;20037;-69
2023/09/02 10:37:53;;;;;;;173.15;164.73;;;;;;;;;;5040358;28;20477;-74
2023/09/02 10:40:35;;;;;;;226.18;215.40;;;;;;;;;;5021122;28;20040;-73
2023/09/02 10:43:01;;;;;;;194.40;185.00;;;;;;;;;;5032938;28;20045;-73
2023/09/02 10:45:28;;;;;;;197.23;187.57;;;;;;;;;;5034878;28;20489;-73
2023/09/02 10:47:53;;;;;;;157.23;149.57;;;;;;;;;;5022330;28;20040;-74
2023/09/02 10:50:20;;;;;;;111.60;106.15;;;;;;;;;;5036397;28;20037;-73
2023/09/02 10:52:47;;;;;;;103.05;97.97;;;;;;;;;;5015493;28;20049;-75
2023/09/02 10:55:13;;;;;;;135.00;128.48;;;;;;;;;;5031572;28;20486;-73
2023/09/02 10:57:54;;;;;;;135.73;129.13;;;;;;;;;;5036613;28;20061;-72
2023/09/02 11:00:22;;;;;;;71.78;68.20;;;;;;;;;;5031818;28;20115;-73
2023/09/02 11:02:52;;;;;;;89.85;85.43;;;;;;;;;;5031534;28;20027;-72
2023/09/02 11:05:19;;;;;;;84.63;80.47;;;;;;;;;;5034136;28;20571;-73
2023/09/02 11:07:45;;;;;;;137.88;131.07;;;;;;;;;;5033607;28;20061;-72
2023/09/02 11:10:11;;;;;;;122.30;116.25;;;;;;;;;;5035643;28;20544;-72
2023/09/02 11:12:57;;;;;;;152.98;145.48;;;;;;;;;;5036437;28;20036;-73
2023/09/02 11:15:23;;;;;;;123.40;117.35;;;;;;;;;;5022291;28;20067;-72
2023/09/02 11:17:48;;;;;;;259.58;247.10;;;;;;;;;;5034506;28;20649;-74
2023/09/02 11:20:19;;;;;;;181.75;172.90;;;;;;;;;;5038127;28;20051;-73
2023/09/02 11:23:01;;;;;;;181.35;172.52;;;;;;;;;;5028982;28;20041;-67
2023/09/02 11:25:29;;;;;;;194.38;184.90;;;;;;;;;;5035017;28;20040;-72
2023/09/02 11:27:56;;;;;;;205.93;195.90;;;;;;;;;;5019653;28;20127;-66
2023/09/02 11:30:23;;;;;;;187.95;178.73;;;;;;;;;;5038417;28;20029;-67
2023/09/02 11:32:49;;;;;;;107.57;102.28;;;;;;;;;;5039681;28;20539;-71
2023/09/02 11:35:27;;;;;;;201.35;191.55;;;;;;;;;;5037811;28;20025;-73
2023/09/02 11:37:54;;;;;;;98.55;93.68;;;;;;;;;;5052938;28;20033;-74
2023/09/02 11:40:21;;;;;;;78.82;74.93;;;;;;;;;;5037963;28;20048;-71
2023/09/02 11:42:51;;;;;;;71.57;68.03;;;;;;;;;;5035992;28;20024;-67
2023/09/02 11:45:17;;;;;;;60.00;57.03;;;;;;;;;;5041197;28;20037;-72
2023/09/02 11:47:42;;;;;;;56.50;53.63;;;;;;;;;;5041192;28;20047;-66
2023/09/02 11:50:17;;;;;;;52.78;50.13;;;;;;;;;;5053810;28;20040;-71
2023/09/02 11:52:46;;;;;;;56.40;53.58;;;;;;;;;;5044105;28;20029;-66
2023/09/02 11:55:16;;;;;;;54.85;52.13;;;;;;;;;;5041406;28;20037;-66
2023/09/02 11:57:42;;;;;;;63.20;60.00;;;;;;;;;;5025443;28;20031;-66
2023/09/02 12:00:13;;;;;;;61.25;58.13;;;;;;;;;;5039552;28;20645;-71
2023/09/02 12:02:38;;;;;;;65.90;62.60;;;;;;;;;;5018826;28;20040;-70
2023/09/02 12:05:04;;;;;;;68.72;65.32;;;;;;;;;;5033029;28;20037;-70
2023/09/02 12:07:32;;;;;;;67.65;64.28;;;;;;;;;;5030181;28;20628;-66
2023/09/02 12:10:10;;;;;;;61.67;58.58;;;;;;;;;;5039130;28;20040;-71
2023/09/02 12:12:46;;;;;;;71.93;68.32;;;;;;;;;;5034502;28;20108;-67
2023/09/02 12:15:18;;;;;;;73.32;69.70;;;;;;;;;;5039454;28;20466;-71
2023/09/02 12:17:46;;;;;;;63.15;59.97;;;;;;;;;;5038157;28;20037;-72
2023/09/02 12:20:15;;;;;;;61.85;58.75;;;;;;;;;;5037880;28;20360;-72
2023/09/02 12:22:43;;;;;;;79.13;75.05;;;;;;;;;;5037893;28;20043;-68
2023/09/02 12:25:12;;;;;;;73.60;69.78;;;;;;;;;;5038897;28;20057;-74
2023/09/02 12:27:37;;;;;;;62.37;59.27;;;;;;;;;;5040023;28;20507;-67
2023/09/02 12:30:03;;;;;;;79.28;75.28;;;;;;;;;;5040819;28;20036;-67
2023/09/02 12:32:29;;;;;;;77.00;73.20;;;;;;;;;;5040340;28;20056;-72
2023/09/02 12:34:55;;;;;;;74.70;71.00;;;;;;;;;;5038207;28;20633;-68
2023/09/02 12:37:21;;;;;;;83.22;79.10;;;;;;;;;;5039802;28;20048;-73
2023/09/02 12:39:48;;;;;;;80.55;76.55;;;;;;;;;;5038617;28;20031;-73
2023/09/02 12:42:24;;;;;;;82.22;78.18;;;;;;;;;;5037593;28;20044;-68
2023/09/02 12:45:09;;;;;;;73.90;70.20;;;;;;;;;;5039774;28;20033;-68
2023/09/02 12:47:37;;;;;;;63.15;60.03;;;;;;;;;;5040419;28;20134;-68
2023/09/02 12:50:03;;;;;;;74.28;70.57;;;;;;;;;;5039407;28;20064;-73
2023/09/02 12:52:30;;;;;;;67.25;63.88;;;;;;;;;;5034427;28;20040;-73
2023/09/02 12:54:56;;;;;;;63.92;60.75;;;;;;;;;;5034825;28;20029;-72
2023/09/02 12:57:30;;;;;;;72.97;69.38;;;;;;;;;;5036157;28;20930;-72
2023/09/02 12:59:56;;;;;;;77.90;74.03;;;;;;;;;;5035894;28;20037;-68
2023/09/02 13:02:23;;;;;;;64.20;61.00;;;;;;;;;;5042961;28;20021;-67
2023/09/02 13:04:49;;;;;;;72.07;68.50;;;;;;;;;;5023478;28;20033;-67
2023/09/02 13:07:19;;;;;;;82.68;78.57;;;;;;;;;;5040778;28;20032;-68
2023/09/02 13:09:48;;;;;;;61.22;57.97;;;;;;;;;;5042558;28;20079;-67
2023/09/02 13:12:13;;;;;;;63.72;60.55;;;;;;;;;;5045333;28;20112;-72
2023/09/02 13:14:41;;;;;;;69.53;66.05;;;;;;;;;;5042856;28;20179;-70
2023/09/02 13:17:06;;;;;;;74.78;71.07;;;;;;;;;;5041153;28;20028;-68
2023/09/02 13:19:32;;;;;;;83.10;79.00;;;;;;;;;;5040988;28;20037;-71
2023/09/02 13:21:58;;;;;;;85.38;81.18;;;;;;;;;;5036112;28;20024;-70
2023/09/02 13:24:25;;;;;;;86.78;82.50;;;;;;;;;;5033614;28;20037;-70
2023/09/02 13:26:51;;;;;;;80.97;76.95;;;;;;;;;;5034128;28;20124;-70
2023/09/02 13:29:18;;;;;;;94.13;89.53;;;;;;;;;;5039116;28;20622;-67
2023/09/02 13:31:45;;;;;;;78.90;75.00;;;;;;;;;;5044724;28;20128;-70
2023/09/02 13:34:23;;;;;;;84.68;80.50;;;;;;;;;;5046538;28;20755;-68
2023/09/02 13:36:49;;;;;;;49.47;46.92;;;;;;;;;;5044909;28;20069;-71
2023/09/02 13:39:14;;;;;;;55.58;52.75;;;;;;;;;;5039934;28;20037;-67
2023/09/02 13:41:39;;;;;;;48.10;45.65;;;;;;;;;;5038262;28;20063;-68
2023/09/02 13:44:08;;;;;;;59.13;56.08;;;;;;;;;;5038181;28;20029;-68
2023/09/02 13:46:34;;;;;;;45.85;43.55;;;;;;;;;;5042577;28;20379;-67
2023/09/02 13:48:59;;;;;;;60.03;57.00;;;;;;;;;;5039122;28;20029;-71
2023/09/02 13:51:25;;;;;;;48.42;46.00;;;;;;;;;;5020370;28;20055;-67
2023/09/02 13:53:53;;;;;;;43.75;41.55;;;;;;;;;;5035471;28;20045;-67
2023/09/02 13:56:18;;;;;;;49.42;46.92;;;;;;;;;;5040007;28;20045;-71
2023/09/02 13:58:46;;;;;;;53.03;50.33;;;;;;;;;;5023297;28;20412;-67
2023/09/02 14:01:13;;;;;;;43.53;41.33;;;;;;;;;;5035973;28;20040;-72
2023/09/02 14:03:38;;;;;;;42.70;40.53;;;;;;;;;;5032607;28;20044;-71
2023/09/02 14:06:05;;;;;;;40.92;38.83;;;;;;;;;;5031123;28;20038;-70
2023/09/02 14:08:36;;;;;;;41.38;39.28;;;;;;;;;;5033943;28;20360;-66